Líbí se Vám tento web? Budeme velmi rádi, pokud přidáte hodnocení +1

Seznam meteostanic a jejich METAR

Vyhledat místa podle abecedy:
A B C D E F G H I J K L M N O P Q R S T U V W X Y Z

Filtrovat:

ID stanice:
a/nebo
Název místa (fulltext):
 
Místo (ID)Naposledy načteno 
Rarotonga I (NCRG) 20.01.2018 03:00 UTC Zobrazit METAR
NCRG 200300Z 10012KT 9999 SCT013 SCT045 OVC090 27/23 Q1012 RMK RETS SPECI CONDX CE ASED
Reykjavik (BIRK) 20.01.2018 03:00 UTC Zobrazit METAR
BIRK 200300Z VRB02KT CAVOK M04/M07 Q1000
Riga (EVRA) 20.01.2018 02:50 UTC Zobrazit METAR
EVRA 200250Z 02001KT 4300 BR BKN009 BKN013 M05/M05 Q1006 R36/590295 NOSIG
Rimini (LIPR) 20.01.2018 02:45 UTC Zobrazit METAR
LIPR 200245Z 23001KT CAVOK 03/02 Q1012
Riyadh (OERY) 19.01.2018 04:00 UTC Zobrazit METAR
OERY 190400Z 14009KT CAVOK 13/00 Q1017
Road Town (TUPJ) 20.01.2018 00:00 UTC Zobrazit METAR
TUPJ 200000Z VRB03KT 9999 SCT020 26/22 Q1017 RMK A3006
Rodos (LGRP) 20.01.2018 02:50 UTC Zobrazit METAR
LGRP 200250Z 12004KT 9999 FEW018 SCT025 11/06 Q1018 NOSIG
Rome (LIRF) 20.01.2018 02:50 UTC Zobrazit METAR
LIRF 200250Z 03005KT 9000 NSC 08/07 Q1011 NOSIG
Roseau (TDCF) 19.01.2018 21:00 UTC Zobrazit METAR
TDCF 192100Z 12006KT 9999 FEW019 28/19 Q1014
Rotterdam (EHRD) 20.01.2018 02:55 UTC Zobrazit METAR
EHRD 200255Z AUTO 23008KT 9999 FEW025 02/00 Q1006 NOSIG
Rzeszow (EPRZ) 20.01.2018 03:00 UTC Zobrazit METAR
EPRZ 200300Z 25005KT 4000 BR NSC M04/M05 Q1010
Reklama

Počasí na Váš email

Emaily jsou bez reklamy a bez spamu



Odhlásit newsletter

Reklama


Lunární kalendář

  • 24.01.
  • 31.01.
  • 07.02.
  • 15.02.



Jsme na Google Plus

Reklama
Povinné ručení



Může Vás také zajímat:


Reklama